sensor_id;sensor_type;location;lat;lon;timestamp;P1;durP1;ratioP1;P2;durP2;ratioP2
19221;SDS011;9745;50.828;4.378;2023-02-01T00:00:02;24.53;;;10.53;;
19221;SDS011;9745;50.828;4.378;2023-02-01T00:02:28;24.20;;;10.53;;
19221;SDS011;9745;50.828;4.378;2023-02-01T00:04:54;27.67;;;11.17;;
19221;SDS011;9745;50.828;4.378;2023-02-01T00:07:20;29.57;;;12.97;;
19221;SDS011;9745;50.828;4.378;2023-02-01T00:09:46;20.90;;;10.20;;
19221;SDS011;9745;50.828;4.378;2023-02-01T00:12:12;28.27;;;9.77;;
19221;SDS011;9745;50.828;4.378;2023-02-01T00:14:38;31.10;;;10.03;;
19221;SDS011;9745;50.828;4.378;2023-02-01T00:17:05;24.07;;;10.17;;
19221;SDS011;9745;50.828;4.378;2023-02-01T00:19:32;31.67;;;12.30;;
19221;SDS011;9745;50.828;4.378;2023-02-01T00:21:58;26.03;;;10.17;;
19221;SDS011;9745;50.828;4.378;2023-02-01T00:24:24;30.30;;;10.40;;
19221;SDS011;9745;50.828;4.378;2023-02-01T00:26:50;32.70;;;11.53;;
19221;SDS011;9745;50.828;4.378;2023-02-01T00:29:17;27.77;;;10.10;;
19221;SDS011;9745;50.828;4.378;2023-02-01T00:31:44;29.27;;;10.17;;
19221;SDS011;9745;50.828;4.378;2023-02-01T00:34:11;29.27;;;10.47;;
19221;SDS011;9745;50.828;4.378;2023-02-01T00:36:37;30.83;;;10.33;;
19221;SDS011;9745;50.828;4.378;2023-02-01T00:39:03;26.33;;;9.83;;
19221;SDS011;9745;50.828;4.378;2023-02-01T00:41:29;30.07;;;10.20;;
19221;SDS011;9745;50.828;4.378;2023-02-01T00:43:55;27.60;;;9.97;;
19221;SDS011;9745;50.828;4.378;2023-02-01T00:46:21;24.80;;;8.87;;
19221;SDS011;9745;50.828;4.378;2023-02-01T00:48:48;31.97;;;9.23;;
19221;SDS011;9745;50.828;4.378;2023-02-01T00:51:15;24.40;;;8.70;;
19221;SDS011;9745;50.828;4.378;2023-02-01T00:53:41;28.70;;;9.87;;
19221;SDS011;9745;50.828;4.378;2023-02-01T00:56:08;24.13;;;9.00;;
19221;SDS011;9745;50.828;4.378;2023-02-01T00:58:34;22.57;;;7.70;;
19221;SDS011;9745;50.828;4.378;2023-02-01T01:01:04;24.03;;;8.57;;
19221;SDS011;9745;50.828;4.378;2023-02-01T01:03:31;20.77;;;7.30;;
19221;SDS011;9745;50.828;4.378;2023-02-01T01:05:58;19.43;;;7.87;;
19221;SDS011;9745;50.828;4.378;2023-02-01T01:08:24;28.60;;;7.47;;
19221;SDS011;9745;50.828;4.378;2023-02-01T01:10:50;20.10;;;7.37;;
19221;SDS011;9745;50.828;4.378;2023-02-01T01:13:16;18.20;;;6.73;;
19221;SDS011;9745;50.828;4.378;2023-02-01T01:15:42;25.07;;;7.43;;
19221;SDS011;9745;50.828;4.378;2023-02-01T01:18:10;21.33;;;7.53;;
19221;SDS011;9745;50.828;4.378;2023-02-01T01:20:37;20.73;;;7.00;;
19221;SDS011;9745;50.828;4.378;2023-02-01T01:23:04;18.97;;;8.33;;
19221;SDS011;9745;50.828;4.378;2023-02-01T01:25:30;19.07;;;6.30;;
19221;SDS011;9745;50.828;4.378;2023-02-01T01:27:56;24.47;;;6.73;;
19221;SDS011;9745;50.828;4.378;2023-02-01T01:30:22;14.67;;;5.50;;
19221;SDS011;9745;50.828;4.378;2023-02-01T01:32:48;20.07;;;5.20;;
19221;SDS011;9745;50.828;4.378;2023-02-01T01:35:15;12.60;;;4.67;;
19221;SDS011;9745;50.828;4.378;2023-02-01T01:37:41;20.30;;;4.77;;
19221;SDS011;9745;50.828;4.378;2023-02-01T01:40:07;20.30;;;5.70;;
19221;SDS011;9745;50.828;4.378;2023-02-01T01:42:36;23.33;;;5.10;;
19221;SDS011;9745;50.828;4.378;2023-02-01T01:45:07;19.70;;;4.90;;
19221;SDS011;9745;50.828;4.378;2023-02-01T01:47:34;23.33;;;4.97;;
19221;SDS011;9745;50.828;4.378;2023-02-01T01:50:01;19.90;;;3.80;;
19221;SDS011;9745;50.828;4.378;2023-02-01T01:52:28;16.83;;;4.60;;
19221;SDS011;9745;50.828;4.378;2023-02-01T01:54:54;19.00;;;4.80;;
19221;SDS011;9745;50.828;4.378;2023-02-01T01:57:23;20.57;;;4.67;;
19221;SDS011;9745;50.828;4.378;2023-02-01T01:59:52;14.87;;;4.17;;
19221;SDS011;9745;50.828;4.378;2023-02-01T02:02:18;15.23;;;4.00;;
19221;SDS011;9745;50.828;4.378;2023-02-01T02:04:44;18.83;;;3.60;;
19221;SDS011;9745;50.828;4.378;2023-02-01T02:07:12;23.43;;;3.80;;
19221;SDS011;9745;50.828;4.378;2023-02-01T02:09:40;17.77;;;3.23;;
19221;SDS011;9745;50.828;4.378;2023-02-01T02:12:07;21.63;;;4.30;;
19221;SDS011;9745;50.828;4.378;2023-02-01T02:14:33;16.77;;;3.83;;
19221;SDS011;9745;50.828;4.378;2023-02-01T02:17:03;21.13;;;4.80;;
19221;SDS011;9745;50.828;4.378;2023-02-01T02:19:52;16.83;;;3.23;;
19221;SDS011;9745;50.828;4.378;2023-02-01T02:36:15;16.97;;;4.10;;
19221;SDS011;9745;50.828;4.378;2023-02-01T02:41:19;20.87;;;4.00;;
19221;SDS011;9745;50.828;4.378;2023-02-01T02:44:09;23.03;;;4.57;;
19221;SDS011;9745;50.828;4.378;2023-02-01T02:46:55;18.00;;;3.80;;
19221;SDS011;9745;50.828;4.378;2023-02-01T02:49:46;19.03;;;3.70;;
19221;SDS011;9745;50.828;4.378;2023-02-01T02:52:36;22.20;;;4.50;;
19221;SDS011;9745;50.828;4.378;2023-02-01T02:55:22;17.60;;;3.80;;
19221;SDS011;9745;50.828;4.378;2023-02-01T02:57:49;14.97;;;3.77;;
19221;SDS011;9745;50.828;4.378;2023-02-01T03:00:34;14.50;;;3.10;;
19221;SDS011;9745;50.828;4.378;2023-02-01T03:03:19;21.53;;;4.93;;
19221;SDS011;9745;50.828;4.378;2023-02-01T03:06:08;14.50;;;3.43;;
19221;SDS011;9745;50.828;4.378;2023-02-01T03:08:35;14.80;;;3.87;;
19221;SDS011;9745;50.828;4.378;2023-02-01T03:11:04;20.40;;;3.80;;
19221;SDS011;9745;50.828;4.378;2023-02-01T03:16:14;11.83;;;3.53;;
19221;SDS011;9745;50.828;4.378;2023-02-01T03:18:45;15.73;;;3.30;;
19221;SDS011;9745;50.828;4.378;2023-02-01T03:21:15;16.77;;;3.30;;
19221;SDS011;9745;50.828;4.378;2023-02-01T03:23:41;17.53;;;3.83;;
19221;SDS011;9745;50.828;4.378;2023-02-01T03:26:10;13.33;;;3.47;;
19221;SDS011;9745;50.828;4.378;2023-02-01T03:28:37;22.73;;;3.57;;
19221;SDS011;9745;50.828;4.378;2023-02-01T03:31:06;15.67;;;4.30;;
19221;SDS011;9745;50.828;4.378;2023-02-01T03:33:32;18.70;;;3.60;;
19221;SDS011;9745;50.828;4.378;2023-02-01T03:41:21;15.87;;;3.70;;
19221;SDS011;9745;50.828;4.378;2023-02-01T03:43:53;25.87;;;4.27;;
19221;SDS011;9745;50.828;4.378;2023-02-01T03:46:25;14.83;;;3.50;;
19221;SDS011;9745;50.828;4.378;2023-02-01T03:48:57;19.33;;;3.57;;
19221;SDS011;9745;50.828;4.378;2023-02-01T03:51:27;14.23;;;3.40;;
19221;SDS011;9745;50.828;4.378;2023-02-01T03:53:54;18.30;;;3.53;;
19221;SDS011;9745;50.828;4.378;2023-02-01T03:56:21;17.87;;;3.40;;
19221;SDS011;9745;50.828;4.378;2023-02-01T03:58:47;15.47;;;3.87;;
19221;SDS011;9745;50.828;4.378;2023-02-01T04:01:24;14.87;;;4.13;;
19221;SDS011;9745;50.828;4.378;2023-02-01T04:03:50;17.90;;;3.77;;
19221;SDS011;9745;50.828;4.378;2023-02-01T04:06:16;17.67;;;4.93;;
19221;SDS011;9745;50.828;4.378;2023-02-01T04:08:42;22.00;;;3.67;;
19221;SDS011;9745;50.828;4.378;2023-02-01T04:11:08;26.13;;;3.80;;
19221;SDS011;9745;50.828;4.378;2023-02-01T04:13:34;17.97;;;3.70;;
19221;SDS011;9745;50.828;4.378;2023-02-01T04:16:00;19.50;;;3.17;;
19221;SDS011;9745;50.828;4.378;2023-02-01T04:18:26;14.53;;;3.93;;
19221;SDS011;9745;50.828;4.378;2023-02-01T04:20:52;20.63;;;4.43;;
19221;SDS011;9745;50.828;4.378;2023-02-01T04:23:18;14.80;;;4.47;;
19221;SDS011;9745;50.828;4.378;2023-02-01T04:25:45;18.37;;;3.57;;
19221;SDS011;9745;50.828;4.378;2023-02-01T04:28:11;17.77;;;3.47;;
19221;SDS011;9745;50.828;4.378;2023-02-01T04:30:37;20.73;;;3.97;;
19221;SDS011;9745;50.828;4.378;2023-02-01T04:33:03;21.57;;;3.37;;
19221;SDS011;9745;50.828;4.378;2023-02-01T04:35:32;18.87;;;3.50;;
19221;SDS011;9745;50.828;4.378;2023-02-01T04:37:58;17.50;;;3.50;;
19221;SDS011;9745;50.828;4.378;2023-02-01T04:40:24;16.40;;;3.63;;
19221;SDS011;9745;50.828;4.378;2023-02-01T04:42:50;17.23;;;4.13;;
19221;SDS011;9745;50.828;4.378;2023-02-01T04:45:16;11.90;;;2.60;;
19221;SDS011;9745;50.828;4.378;2023-02-01T04:47:43;19.83;;;4.20;;
19221;SDS011;9745;50.828;4.378;2023-02-01T04:50:09;18.17;;;3.67;;
19221;SDS011;9745;50.828;4.378;2023-02-01T04:52:36;23.30;;;3.77;;
19221;SDS011;9745;50.828;4.378;2023-02-01T04:55:02;16.03;;;3.73;;
19221;SDS011;9745;50.828;4.378;2023-02-01T04:57:28;20.13;;;3.70;;
19221;SDS011;9745;50.828;4.378;2023-02-01T04:59:54;20.03;;;3.77;;
19221;SDS011;9745;50.828;4.378;2023-02-01T05:02:21;14.47;;;3.37;;
19221;SDS011;9745;50.828;4.378;2023-02-01T05:04:47;18.07;;;3.80;;
19221;SDS011;9745;50.828;4.378;2023-02-01T05:07:13;21.20;;;3.90;;
19221;SDS011;9745;50.828;4.378;2023-02-01T05:09:39;19.60;;;3.23;;
19221;SDS011;9745;50.828;4.378;2023-02-01T05:12:05;13.53;;;3.27;;
19221;SDS011;9745;50.828;4.378;2023-02-01T05:14:50;21.03;;;3.63;;
19221;SDS011;9745;50.828;4.378;2023-02-01T05:17:16;23.37;;;5.00;;
19221;SDS011;9745;50.828;4.378;2023-02-01T05:19:41;21.60;;;4.13;;
19221;SDS011;9745;50.828;4.378;2023-02-01T05:22:07;16.60;;;3.70;;
19221;SDS011;9745;50.828;4.378;2023-02-01T05:24:33;26.07;;;4.37;;
19221;SDS011;9745;50.828;4.378;2023-02-01T05:26:59;15.70;;;4.20;;
19221;SDS011;9745;50.828;4.378;2023-02-01T05:29:25;20.47;;;3.80;;
19221;SDS011;9745;50.828;4.378;2023-02-01T05:31:51;10.80;;;3.37;;
19221;SDS011;9745;50.828;4.378;2023-02-01T05:34:17;20.33;;;3.83;;
19221;SDS011;9745;50.828;4.378;2023-02-01T05:36:43;16.07;;;2.77;;
19221;SDS011;9745;50.828;4.378;2023-02-01T05:39:09;21.50;;;3.20;;
19221;SDS011;9745;50.828;4.378;2023-02-01T05:41:35;18.20;;;3.70;;
19221;SDS011;9745;50.828;4.378;2023-02-01T05:44:01;24.93;;;4.20;;
19221;SDS011;9745;50.828;4.378;2023-02-01T05:46:27;18.30;;;3.73;;
19221;SDS011;9745;50.828;4.378;2023-02-01T05:48:53;17.27;;;3.10;;
19221;SDS011;9745;50.828;4.378;2023-02-01T05:51:19;19.40;;;3.87;;
19221;SDS011;9745;50.828;4.378;2023-02-01T05:53:45;24.93;;;4.37;;
19221;SDS011;9745;50.828;4.378;2023-02-01T05:56:11;20.33;;;3.70;;
19221;SDS011;9745;50.828;4.378;2023-02-01T05:58:37;17.77;;;3.63;;
19221;SDS011;9745;50.828;4.378;2023-02-01T06:01:03;18.00;;;3.87;;
19221;SDS011;9745;50.828;4.378;2023-02-01T06:03:29;22.07;;;4.30;;
19221;SDS011;9745;50.828;4.378;2023-02-01T06:05:55;18.57;;;3.57;;
19221;SDS011;9745;50.828;4.378;2023-02-01T06:08:21;21.13;;;3.63;;
19221;SDS011;9745;50.828;4.378;2023-02-01T06:10:50;25.70;;;3.93;;
19221;SDS011;9745;50.828;4.378;2023-02-01T06:13:16;18.93;;;4.40;;
19221;SDS011;9745;50.828;4.378;2023-02-01T06:15:42;20.77;;;4.77;;
19221;SDS011;9745;50.828;4.378;2023-02-01T06:18:09;16.20;;;3.40;;
19221;SDS011;9745;50.828;4.378;2023-02-01T06:20:35;18.90;;;4.30;;
19221;SDS011;9745;50.828;4.378;2023-02-01T06:23:01;18.37;;;3.73;;
19221;SDS011;9745;50.828;4.378;2023-02-01T06:25:27;15.13;;;3.57;;
19221;SDS011;9745;50.828;4.378;2023-02-01T06:27:53;25.13;;;4.30;;
19221;SDS011;9745;50.828;4.378;2023-02-01T06:30:19;19.70;;;3.47;;
19221;SDS011;9745;50.828;4.378;2023-02-01T06:32:49;20.27;;;4.30;;
19221;SDS011;9745;50.828;4.378;2023-02-01T06:35:18;21.83;;;3.87;;
19221;SDS011;9745;50.828;4.378;2023-02-01T06:37:44;26.07;;;3.83;;
19221;SDS011;9745;50.828;4.378;2023-02-01T06:40:10;17.57;;;3.60;;
19221;SDS011;9745;50.828;4.378;2023-02-01T06:42:36;17.07;;;4.37;;
19221;SDS011;9745;50.828;4.378;2023-02-01T06:45:02;15.80;;;3.50;;
19221;SDS011;9745;50.828;4.378;2023-02-01T06:47:28;28.27;;;4.00;;
19221;SDS011;9745;50.828;4.378;2023-02-01T06:49:54;18.10;;;3.97;;
19221;SDS011;9745;50.828;4.378;2023-02-01T06:52:20;17.70;;;4.00;;
19221;SDS011;9745;50.828;4.378;2023-02-01T06:54:46;13.47;;;3.30;;
19221;SDS011;9745;50.828;4.378;2023-02-01T06:57:12;18.37;;;4.03;;
19221;SDS011;9745;50.828;4.378;2023-02-01T06:59:38;19.57;;;3.37;;
19221;SDS011;9745;50.828;4.378;2023-02-01T07:02:04;22.70;;;4.43;;
19221;SDS011;9745;50.828;4.378;2023-02-01T07:04:31;16.70;;;3.23;;
19221;SDS011;9745;50.828;4.378;2023-02-01T07:06:57;26.17;;;5.13;;
19221;SDS011;9745;50.828;4.378;2023-02-01T07:09:23;18.47;;;3.33;;
19221;SDS011;9745;50.828;4.378;2023-02-01T07:11:49;15.50;;;3.67;;
19221;SDS011;9745;50.828;4.378;2023-02-01T07:14:15;20.43;;;3.90;;
19221;SDS011;9745;50.828;4.378;2023-02-01T07:16:41;19.20;;;3.93;;
19221;SDS011;9745;50.828;4.378;2023-02-01T07:19:07;24.97;;;4.23;;
19221;SDS011;9745;50.828;4.378;2023-02-01T07:21:33;26.43;;;6.47;;
19221;SDS011;9745;50.828;4.378;2023-02-01T07:23:58;29.17;;;6.37;;
19221;SDS011;9745;50.828;4.378;2023-02-01T07:26:25;24.63;;;5.40;;
19221;SDS011;9745;50.828;4.378;2023-02-01T07:28:51;20.83;;;3.93;;
19221;SDS011;9745;50.828;4.378;2023-02-01T07:31:18;16.87;;;3.57;;
19221;SDS011;9745;50.828;4.378;2023-02-01T07:33:46;19.27;;;3.80;;
19221;SDS011;9745;50.828;4.378;2023-02-01T07:36:13;21.37;;;4.63;;
19221;SDS011;9745;50.828;4.378;2023-02-01T07:38:39;19.70;;;4.10;;
19221;SDS011;9745;50.828;4.378;2023-02-01T07:41:06;22.13;;;3.60;;
19221;SDS011;9745;50.828;4.378;2023-02-01T07:43:33;22.73;;;3.87;;
19221;SDS011;9745;50.828;4.378;2023-02-01T07:46:05;24.83;;;4.60;;
19221;SDS011;9745;50.828;4.378;2023-02-01T07:48:32;19.20;;;4.30;;
19221;SDS011;9745;50.828;4.378;2023-02-01T07:51:05;26.30;;;5.00;;
19221;SDS011;9745;50.828;4.378;2023-02-01T07:53:32;15.57;;;3.53;;
19221;SDS011;9745;50.828;4.378;2023-02-01T07:55:58;26.37;;;4.67;;
19221;SDS011;9745;50.828;4.378;2023-02-01T07:58:24;19.30;;;4.37;;
19221;SDS011;9745;50.828;4.378;2023-02-01T08:00:51;22.33;;;3.57;;
19221;SDS011;9745;50.828;4.378;2023-02-01T08:03:36;20.80;;;4.30;;
19221;SDS011;9745;50.828;4.378;2023-02-01T08:06:02;21.00;;;3.83;;
19221;SDS011;9745;50.828;4.378;2023-02-01T08:08:28;17.23;;;3.70;;
19221;SDS011;9745;50.828;4.378;2023-02-01T08:10:58;22.13;;;4.20;;
19221;SDS011;9745;50.828;4.378;2023-02-01T08:13:24;19.37;;;3.90;;
19221;SDS011;9745;50.828;4.378;2023-02-01T08:15:50;23.30;;;4.33;;
19221;SDS011;9745;50.828;4.378;2023-02-01T08:18:16;19.30;;;3.57;;
19221;SDS011;9745;50.828;4.378;2023-02-01T08:20:43;20.93;;;4.03;;
19221;SDS011;9745;50.828;4.378;2023-02-01T08:23:10;24.43;;;4.63;;
19221;SDS011;9745;50.828;4.378;2023-02-01T08:25:37;28.20;;;4.50;;
19221;SDS011;9745;50.828;4.378;2023-02-01T08:28:03;16.03;;;3.83;;
19221;SDS011;9745;50.828;4.378;2023-02-01T08:30:29;16.83;;;3.47;;
19221;SDS011;9745;50.828;4.378;2023-02-01T08:32:55;22.93;;;4.40;;
19221;SDS011;9745;50.828;4.378;2023-02-01T08:35:21;15.70;;;4.10;;
19221;SDS011;9745;50.828;4.378;2023-02-01T08:37:49;25.83;;;4.17;;
19221;SDS011;9745;50.828;4.378;2023-02-01T08:40:15;27.33;;;4.67;;
19221;SDS011;9745;50.828;4.378;2023-02-01T08:42:41;16.80;;;3.93;;
19221;SDS011;9745;50.828;4.378;2023-02-01T08:45:16;18.40;;;4.27;;
19221;SDS011;9745;50.828;4.378;2023-02-01T08:47:43;29.33;;;4.50;;
19221;SDS011;9745;50.828;4.378;2023-02-01T08:50:11;20.00;;;4.20;;
19221;SDS011;9745;50.828;4.378;2023-02-01T08:52:37;23.27;;;5.70;;
19221;SDS011;9745;50.828;4.378;2023-02-01T08:55:04;15.87;;;4.17;;
19221;SDS011;9745;50.828;4.378;2023-02-01T08:57:31;18.40;;;3.67;;
19221;SDS011;9745;50.828;4.378;2023-02-01T08:59:57;22.00;;;5.50;;
19221;SDS011;9745;50.828;4.378;2023-02-01T09:02:24;21.50;;;4.17;;
19221;SDS011;9745;50.828;4.378;2023-02-01T09:04:50;17.97;;;3.87;;
19221;SDS011;9745;50.828;4.378;2023-02-01T09:07:16;18.80;;;4.53;;
19221;SDS011;9745;50.828;4.378;2023-02-01T09:09:43;13.93;;;3.67;;
19221;SDS011;9745;50.828;4.378;2023-02-01T09:12:09;22.43;;;3.90;;
19221;SDS011;9745;50.828;4.378;2023-02-01T09:14:35;24.53;;;4.23;;
19221;SDS011;9745;50.828;4.378;2023-02-01T09:17:02;25.17;;;4.27;;
19221;SDS011;9745;50.828;4.378;2023-02-01T09:19:28;16.67;;;3.93;;
19221;SDS011;9745;50.828;4.378;2023-02-01T09:21:54;18.20;;;3.73;;
19221;SDS011;9745;50.828;4.378;2023-02-01T09:24:20;17.40;;;3.67;;
19221;SDS011;9745;50.828;4.378;2023-02-01T09:26:46;20.93;;;3.80;;
19221;SDS011;9745;50.828;4.378;2023-02-01T09:29:12;19.37;;;3.37;;
19221;SDS011;9745;50.828;4.378;2023-02-01T09:31:39;25.07;;;5.80;;
19221;SDS011;9745;50.828;4.378;2023-02-01T09:34:05;19.80;;;3.77;;
19221;SDS011;9745;50.828;4.378;2023-02-01T09:36:31;20.67;;;4.43;;
19221;SDS011;9745;50.828;4.378;2023-02-01T09:38:58;18.30;;;4.50;;
19221;SDS011;9745;50.828;4.378;2023-02-01T09:41:32;27.67;;;5.27;;
19221;SDS011;9745;50.828;4.378;2023-02-01T09:44:24;18.90;;;4.00;;
19221;SDS011;9745;50.828;4.378;2023-02-01T09:46:53;20.70;;;4.60;;
19221;SDS011;9745;50.828;4.378;2023-02-01T09:49:22;21.87;;;4.40;;
19221;SDS011;9745;50.828;4.378;2023-02-01T09:51:50;20.50;;;3.63;;
19221;SDS011;9745;50.828;4.378;2023-02-01T09:54:22;17.87;;;3.83;;
19221;SDS011;9745;50.828;4.378;2023-02-01T09:56:49;22.03;;;4.47;;
19221;SDS011;9745;50.828;4.378;2023-02-01T09:59:21;20.13;;;3.97;;
19221;SDS011;9745;50.828;4.378;2023-02-01T10:01:49;23.40;;;4.27;;
19221;SDS011;9745;50.828;4.378;2023-02-01T10:04:15;16.63;;;3.93;;
19221;SDS011;9745;50.828;4.378;2023-02-01T10:06:46;21.03;;;3.97;;
19221;SDS011;9745;50.828;4.378;2023-02-01T10:12:16;12.27;;;4.10;;
19221;SDS011;9745;50.828;4.378;2023-02-01T10:14:57;19.23;;;3.77;;
19221;SDS011;9745;50.828;4.378;2023-02-01T10:20:25;17.67;;;4.27;;
19221;SDS011;9745;50.828;4.378;2023-02-01T10:25:55;28.23;;;4.87;;
19221;SDS011;9745;50.828;4.378;2023-02-01T10:28:21;17.80;;;4.03;;
19221;SDS011;9745;50.828;4.378;2023-02-01T10:30:49;24.53;;;3.93;;
19221;SDS011;9745;50.828;4.378;2023-02-01T10:33:18;18.37;;;3.63;;
19221;SDS011;9745;50.828;4.378;2023-02-01T10:35:45;27.43;;;3.83;;
19221;SDS011;9745;50.828;4.378;2023-02-01T10:38:27;18.20;;;4.57;;
19221;SDS011;9745;50.828;4.378;2023-02-01T10:40:55;19.20;;;4.67;;
19221;SDS011;9745;50.828;4.378;2023-02-01T10:43:21;16.90;;;4.00;;
19221;SDS011;9745;50.828;4.378;2023-02-01T10:45:47;9.83;;;3.00;;
19221;SDS011;9745;50.828;4.378;2023-02-01T10:48:13;13.53;;;3.80;;
19221;SDS011;9745;50.828;4.378;2023-02-01T10:50:49;17.50;;;3.97;;
19221;SDS011;9745;50.828;4.378;2023-02-01T10:58:19;15.97;;;3.50;;
19221;SDS011;9745;50.828;4.378;2023-02-01T11:00:47;11.47;;;2.70;;
19221;SDS011;9745;50.828;4.378;2023-02-01T11:03:30;18.37;;;3.20;;
19221;SDS011;9745;50.828;4.378;2023-02-01T11:05:57;13.97;;;2.70;;
19221;SDS011;9745;50.828;4.378;2023-02-01T11:08:24;16.27;;;3.00;;
19221;SDS011;9745;50.828;4.378;2023-02-01T11:11:01;16.80;;;4.03;;
19221;SDS011;9745;50.828;4.378;2023-02-01T11:13:31;16.67;;;3.97;;
19221;SDS011;9745;50.828;4.378;2023-02-01T11:16:00;19.93;;;3.03;;
19221;SDS011;9745;50.828;4.378;2023-02-01T11:18:28;17.03;;;3.17;;
19221;SDS011;9745;50.828;4.378;2023-02-01T11:20:54;15.80;;;3.03;;
19221;SDS011;9745;50.828;4.378;2023-02-01T11:23:24;15.50;;;4.07;;
19221;SDS011;9745;50.828;4.378;2023-02-01T11:25:59;14.70;;;2.57;;
19221;SDS011;9745;50.828;4.378;2023-02-01T11:28:26;19.57;;;3.83;;
19221;SDS011;9745;50.828;4.378;2023-02-01T11:30:53;11.43;;;2.90;;
19221;SDS011;9745;50.828;4.378;2023-02-01T11:33:21;20.73;;;3.97;;
19221;SDS011;9745;50.828;4.378;2023-02-01T11:35:50;11.97;;;2.67;;
19221;SDS011;9745;50.828;4.378;2023-02-01T11:40:46;15.97;;;2.57;;
19221;SDS011;9745;50.828;4.378;2023-02-01T11:45:38;14.07;;;3.03;;
19221;SDS011;9745;50.828;4.378;2023-02-01T11:48:08;13.30;;;2.60;;
19221;SDS011;9745;50.828;4.378;2023-02-01T11:50:37;19.43;;;2.40;;
19221;SDS011;9745;50.828;4.378;2023-02-01T11:55:38;10.33;;;2.17;;
19221;SDS011;9745;50.828;4.378;2023-02-01T12:03:45;11.83;;;2.60;;
19221;SDS011;9745;50.828;4.378;2023-02-01T12:16:29;26.37;;;5.60;;
19221;SDS011;9745;50.828;4.378;2023-02-01T12:19:03;9.60;;;2.27;;
19221;SDS011;9745;50.828;4.378;2023-02-01T12:29:15;12.73;;;3.17;;
19221;SDS011;9745;50.828;4.378;2023-02-01T12:31:54;9.47;;;2.60;;
19221;SDS011;9745;50.828;4.378;2023-02-01T12:36:57;13.73;;;3.20;;
19221;SDS011;9745;50.828;4.378;2023-02-01T12:39:31;11.10;;;3.20;;
19221;SDS011;9745;50.828;4.378;2023-02-01T12:42:00;13.87;;;3.07;;
19221;SDS011;9745;50.828;4.378;2023-02-01T12:44:32;10.33;;;2.00;;
19221;SDS011;9745;50.828;4.378;2023-02-01T12:47:12;11.73;;;2.30;;
19221;SDS011;9745;50.828;4.378;2023-02-01T12:49:57;17.03;;;2.23;;
19221;SDS011;9745;50.828;4.378;2023-02-01T12:52:35;11.90;;;2.03;;
19221;SDS011;9745;50.828;4.378;2023-02-01T12:55:06;13.17;;;2.43;;
19221;SDS011;9745;50.828;4.378;2023-02-01T12:57:37;13.40;;;2.20;;
19221;SDS011;9745;50.828;4.378;2023-02-01T13:02:43;10.10;;;2.67;;
19221;SDS011;9745;50.828;4.378;2023-02-01T13:05:21;22.73;;;4.17;;
19221;SDS011;9745;50.828;4.378;2023-02-01T13:08:48;11.97;;;2.43;;
19221;SDS011;9745;50.828;4.378;2023-02-01T13:10:43;11.00;;;2.53;;
19221;SDS011;9745;50.828;4.378;2023-02-01T13:13:16;10.77;;;2.80;;
19221;SDS011;9745;50.828;4.378;2023-02-01T13:15:58;15.43;;;2.40;;
19221;SDS011;9745;50.828;4.378;2023-02-01T13:18:32;9.10;;;2.03;;
19221;SDS011;9745;50.828;4.378;2023-02-01T13:21:03;8.17;;;1.80;;
19221;SDS011;9745;50.828;4.378;2023-02-01T13:23:34;7.63;;;1.97;;
19221;SDS011;9745;50.828;4.378;2023-02-01T13:26:01;7.83;;;1.60;;
19221;SDS011;9745;50.828;4.378;2023-02-01T13:31:24;9.77;;;2.07;;
19221;SDS011;9745;50.828;4.378;2023-02-01T13:34:57;8.77;;;1.67;;
19221;SDS011;9745;50.828;4.378;2023-02-01T13:39:47;10.37;;;1.67;;
19221;SDS011;9745;50.828;4.378;2023-02-01T13:42:16;6.73;;;2.27;;
19221;SDS011;9745;50.828;4.378;2023-02-01T13:44:44;14.13;;;1.93;;
19221;SDS011;9745;50.828;4.378;2023-02-01T13:49:57;11.20;;;2.05;;
19221;SDS011;9745;50.828;4.378;2023-02-01T13:55:00;7.80;;;1.87;;
19221;SDS011;9745;50.828;4.378;2023-02-01T13:57:36;17.10;;;4.60;;
19221;SDS011;9745;50.828;4.378;2023-02-01T14:00:45;9.60;;;2.47;;
19221;SDS011;9745;50.828;4.378;2023-02-01T14:03:02;14.00;;;3.03;;
19221;SDS011;9745;50.828;4.378;2023-02-01T14:13:37;8.00;;;2.00;;
19221;SDS011;9745;50.828;4.378;2023-02-01T14:24:02;8.23;;;1.60;;
19221;SDS011;9745;50.828;4.378;2023-02-01T14:29:36;10.50;;;2.07;;
19221;SDS011;9745;50.828;4.378;2023-02-01T14:34:38;9.93;;;2.13;;
19221;SDS011;9745;50.828;4.378;2023-02-01T14:37:09;11.57;;;2.83;;
19221;SDS011;9745;50.828;4.378;2023-02-01T14:42:14;6.30;;;1.40;;
19221;SDS011;9745;50.828;4.378;2023-02-01T14:44:41;14.37;;;2.40;;
19221;SDS011;9745;50.828;4.378;2023-02-01T14:47:09;12.53;;;1.83;;
19221;SDS011;9745;50.828;4.378;2023-02-01T14:52:32;7.03;;;1.70;;
19221;SDS011;9745;50.828;4.378;2023-02-01T14:55:00;13.53;;;3.23;;
19221;SDS011;9745;50.828;4.378;2023-02-01T14:57:27;13.43;;;2.60;;
19221;SDS011;9745;50.828;4.378;2023-02-01T14:59:59;15.77;;;2.63;;
19221;SDS011;9745;50.828;4.378;2023-02-01T15:02:26;7.37;;;2.73;;
19221;SDS011;9745;50.828;4.378;2023-02-01T15:04:53;9.10;;;2.50;;
19221;SDS011;9745;50.828;4.378;2023-02-01T15:07:20;8.63;;;2.43;;
19221;SDS011;9745;50.828;4.378;2023-02-01T15:09:47;12.73;;;2.30;;
19221;SDS011;9745;50.828;4.378;2023-02-01T15:15:12;16.37;;;2.43;;
19221;SDS011;9745;50.828;4.378;2023-02-01T15:17:38;17.33;;;2.70;;
19221;SDS011;9745;50.828;4.378;2023-02-01T15:22:40;10.63;;;1.90;;
19221;SDS011;9745;50.828;4.378;2023-02-01T15:25:28;15.40;;;2.40;;
19221;SDS011;9745;50.828;4.378;2023-02-01T15:27:53;13.03;;;2.40;;
19221;SDS011;9745;50.828;4.378;2023-02-01T15:30:24;15.37;;;2.60;;
19221;SDS011;9745;50.828;4.378;2023-02-01T15:32:51;14.03;;;2.60;;
19221;SDS011;9745;50.828;4.378;2023-02-01T15:40:54;10.93;;;2.73;;
19221;SDS011;9745;50.828;4.378;2023-02-01T15:43:21;10.97;;;2.37;;
19221;SDS011;9745;50.828;4.378;2023-02-01T15:45:47;13.20;;;2.20;;
19221;SDS011;9745;50.828;4.378;2023-02-01T15:48:19;14.53;;;2.50;;
19221;SDS011;9745;50.828;4.378;2023-02-01T15:50:47;12.23;;;2.30;;
19221;SDS011;9745;50.828;4.378;2023-02-01T15:53:18;13.57;;;3.70;;
19221;SDS011;9745;50.828;4.378;2023-02-01T15:55:44;8.63;;;2.43;;
19221;SDS011;9745;50.828;4.378;2023-02-01T15:58:22;12.63;;;3.00;;
19221;SDS011;9745;50.828;4.378;2023-02-01T16:03:28;12.03;;;2.67;;
19221;SDS011;9745;50.828;4.378;2023-02-01T16:06:00;14.57;;;2.87;;
19221;SDS011;9745;50.828;4.378;2023-02-01T16:08:27;14.50;;;2.63;;
19221;SDS011;9745;50.828;4.378;2023-02-01T16:10:58;9.37;;;2.80;;
19221;SDS011;9745;50.828;4.378;2023-02-01T16:13:25;11.70;;;2.03;;
19221;SDS011;9745;50.828;4.378;2023-02-01T16:15:51;13.03;;;3.40;;
19221;SDS011;9745;50.828;4.378;2023-02-01T16:18:17;21.63;;;4.17;;
19221;SDS011;9745;50.828;4.378;2023-02-01T16:20:44;15.57;;;2.77;;
19221;SDS011;9745;50.828;4.378;2023-02-01T16:23:10;15.83;;;2.63;;
19221;SDS011;9745;50.828;4.378;2023-02-01T16:25:36;17.53;;;2.90;;
19221;SDS011;9745;50.828;4.378;2023-02-01T16:28:03;13.33;;;2.90;;
19221;SDS011;9745;50.828;4.378;2023-02-01T16:30:30;11.37;;;3.13;;
19221;SDS011;9745;50.828;4.378;2023-02-01T16:32:57;11.57;;;3.00;;
19221;SDS011;9745;50.828;4.378;2023-02-01T16:35:27;16.83;;;2.50;;
19221;SDS011;9745;50.828;4.378;2023-02-01T16:37:54;16.30;;;3.07;;
19221;SDS011;9745;50.828;4.378;2023-02-01T16:40:21;16.07;;;4.13;;
19221;SDS011;9745;50.828;4.378;2023-02-01T16:42:48;12.20;;;3.03;;
19221;SDS011;9745;50.828;4.378;2023-02-01T16:45:15;14.67;;;2.87;;
19221;SDS011;9745;50.828;4.378;2023-02-01T16:47:42;11.00;;;3.20;;
19221;SDS011;9745;50.828;4.378;2023-02-01T16:50:32;15.13;;;3.57;;
19221;SDS011;9745;50.828;4.378;2023-02-01T16:52:57;17.77;;;3.03;;
19221;SDS011;9745;50.828;4.378;2023-02-01T16:55:23;15.63;;;3.33;;
19221;SDS011;9745;50.828;4.378;2023-02-01T16:57:50;12.90;;;3.37;;
19221;SDS011;9745;50.828;4.378;2023-02-01T17:00:16;11.63;;;3.07;;
19221;SDS011;9745;50.828;4.378;2023-02-01T17:02:42;13.23;;;3.50;;